< < Back
Terminal Aerodrome Forecast


Current Version              Previous Versions:   1  2  3  4  5  6  7  8  9  

Terminal Aerodrome Forecast

273
FTUS42 KMLB 301733
TAFDAB
TAF
KDAB 301733Z 3018/3118 08010KT P6SM FEW045 SCT250
     FM310100 17003KT P6SM FEW030 SCT250
     FM311500 20004KT P6SM FEW035=



Latest METAR

854
SAUS80 KWBC 301800 RRB
MTRDAB
METAR KDAB 301753Z 07010KT 10SM FEW040TCU FEW080 FEW150 FEW250 34/22
A3005 RMK AO2 SLP176 TCU SW-W CB DSNT S SW-NW T03390222 10339
20250 58009 $


USA.gov is the U.S. government's official web portal to all federal, state and local government web resources and services.